createdAt,value
2022-09-03T00:01:25.131Z,65.93
2022-09-03T00:03:57.898Z,65.75
2022-09-03T00:06:34.905Z,66.09
2022-09-03T00:09:04.596Z,66.12
2022-09-03T00:11:39.214Z,66.24
2022-09-03T00:14:09.489Z,66.40
2022-09-03T00:16:57.692Z,66.13
2022-09-03T00:19:26.916Z,66.10
2022-09-03T00:21:57.540Z,66.50
2022-09-03T00:24:28.258Z,66.30
2022-09-03T00:26:57.324Z,66.23
2022-09-03T00:29:28.169Z,66.34
2022-09-03T00:31:58.526Z,66.41
2022-09-03T00:34:39.227Z,66.73
2022-09-03T00:37:07.478Z,66.64
2022-09-03T00:39:41.742Z,66.90
2022-09-03T00:42:24.731Z,66.76
2022-09-03T00:44:55.172Z,66.83
2022-09-03T00:47:27.908Z,66.82
2022-09-03T00:50:20.943Z,67.09
2022-09-03T00:53:12.540Z,67.24
2022-09-03T00:55:58.776Z,67.05
2022-09-03T00:58:45.012Z,67.24
2022-09-03T01:01:18.303Z,67.02
2022-09-03T01:04:08.804Z,67.29
2022-09-03T01:06:46.299Z,67.51
2022-09-03T01:09:38.154Z,67.73
2022-09-03T01:12:20.137Z,67.64
2022-09-03T01:14:56.424Z,67.88
2022-09-03T01:17:32.478Z,68.43
2022-09-03T01:20:14.745Z,68.54
2022-09-03T01:23:00.164Z,68.61
2022-09-03T01:25:43.171Z,68.53
2022-09-03T01:28:27.790Z,68.50
2022-09-03T01:30:57.656Z,68.58
2022-09-03T01:33:31.570Z,68.91
2022-09-03T01:36:13.471Z,68.87
2022-09-03T01:38:50.245Z,69.00
2022-09-03T01:41:57.092Z,69.04
2022-09-03T01:44:31.700Z,69.36
2022-09-03T01:47:19.017Z,69.25
2022-09-03T01:49:53.484Z,69.21
2022-09-03T01:52:40.819Z,69.27
2022-09-03T01:55:28.176Z,69.70
2022-09-03T01:57:58.642Z,69.65
2022-09-03T02:00:26.780Z,69.84
2022-09-03T02:02:54.266Z,69.88
2022-09-03T02:05:22.847Z,70.04
2022-09-03T02:07:57.724Z,70.37
2022-09-03T02:10:32.261Z,70.49
2022-09-03T02:13:02.290Z,70.50
2022-09-03T02:15:32.519Z,70.61
2022-09-03T02:18:02.101Z,70.74
2022-09-03T02:20:29.856Z,70.74
2022-09-03T02:22:58.179Z,70.87
2022-09-03T02:25:29.606Z,70.90
2022-09-03T02:27:57.515Z,70.96
2022-09-03T02:30:25.129Z,70.86
2022-09-03T02:32:52.152Z,70.81
2022-09-03T02:35:19.407Z,71.22
2022-09-03T02:37:46.476Z,71.06
2022-09-03T02:40:13.629Z,71.13
2022-09-03T02:42:41.056Z,71.23
2022-09-03T02:45:13.943Z,71.62
2022-09-03T02:47:43.635Z,71.67
2022-09-03T02:50:10.741Z,72.00
2022-09-03T02:52:37.971Z,71.65
2022-09-03T02:57:57.416Z,71.78
2022-09-03T03:00:24.501Z,71.63
2022-09-03T03:02:52.481Z,72.06
2022-09-03T03:05:24.720Z,72.05
2022-09-03T03:07:51.759Z,72.06
2022-09-03T03:10:18.813Z,72.11
2022-09-03T03:12:45.848Z,72.20
2022-09-03T03:15:12.993Z,72.10
2022-09-03T03:17:40.036Z,72.37
2022-09-03T03:20:08.027Z,72.30
2022-09-03T03:22:35.687Z,72.33
2022-09-03T03:25:03.059Z,72.79
2022-09-03T03:27:30.175Z,72.34
2022-09-03T03:29:58.095Z,73.01
2022-09-03T03:32:25.156Z,72.73
2022-09-03T03:34:52.271Z,72.86
2022-09-03T03:37:19.323Z,72.84
2022-09-03T03:39:46.451Z,72.59
2022-09-03T03:42:14.221Z,72.67
2022-09-03T03:44:43.935Z,72.57
2022-09-03T03:47:11.047Z,72.61
2022-09-03T03:49:39.247Z,72.67
2022-09-03T03:52:06.279Z,72.67
2022-09-03T03:54:33.317Z,72.70
2022-09-03T03:57:00.661Z,72.65
2022-09-03T03:59:27.682Z,73.06
2022-09-03T04:01:55.114Z,72.97
2022-09-03T04:04:22.376Z,73.13
2022-09-03T04:06:49.401Z,73.26
2022-09-03T04:09:16.447Z,73.33
2022-09-03T04:11:43.532Z,73.76
2022-09-03T04:14:10.601Z,73.46
2022-09-03T04:16:37.711Z,73.74
2022-09-03T04:19:04.887Z,73.82
2022-09-03T04:21:31.955Z,73.62
2022-09-03T04:23:58.989Z,73.96
2022-09-03T04:26:31.371Z,73.84
2022-09-03T04:28:59.213Z,73.72
2022-09-03T04:31:26.800Z,74.26
2022-09-03T04:33:54.955Z,74.10
2022-09-03T04:36:23.245Z,74.22
2022-09-03T04:38:51.616Z,74.30
2022-09-03T04:41:19.793Z,74.63
2022-09-03T04:43:51.256Z,74.28
2022-09-03T04:46:20.193Z,74.46
2022-09-03T04:48:51.553Z,75.17
2022-09-03T04:51:20.942Z,74.97
2022-09-03T04:53:49.986Z,75.16
2022-09-03T04:56:18.492Z,74.95
2022-09-03T04:58:46.039Z,75.28
2022-09-03T05:01:20.606Z,75.51
2022-09-03T05:03:48.127Z,76.07
2022-09-03T05:06:17.341Z,76.07
2022-09-03T05:08:48.200Z,76.19
2022-09-03T05:11:16.485Z,77.02
2022-09-03T05:13:43.674Z,77.26
2022-09-03T05:16:11.620Z,77.53
2022-09-03T05:18:39.533Z,77.26
2022-09-03T05:21:08.208Z,77.88
2022-09-03T05:23:39.416Z,77.92
2022-09-03T05:26:11.021Z,78.08
2022-09-03T05:28:39.221Z,79.04
2022-09-03T05:31:06.434Z,79.69
2022-09-03T05:33:34.902Z,79.50
2022-09-03T05:36:02.897Z,79.70
2022-09-03T05:38:29.998Z,79.18
2022-09-03T05:41:00.858Z,79.50
2022-09-03T05:43:28.882Z,80.46
2022-09-03T05:46:03.319Z,80.55
2022-09-03T05:48:31.037Z,80.41
2022-09-03T05:51:01.668Z,80.64
2022-09-03T05:53:29.231Z,80.83
2022-09-03T05:56:00.218Z,81.27
2022-09-03T05:58:31.089Z,81.23
2022-09-03T06:00:58.555Z,81.08
2022-09-03T06:03:26.307Z,81.02
2022-09-03T06:05:54.452Z,81.03
2022-09-03T06:08:21.744Z,81.13
2022-09-03T06:10:48.801Z,81.40
2022-09-03T06:13:15.885Z,81.59
2022-09-03T06:15:43.030Z,80.98
2022-09-03T06:18:10.145Z,80.72
2022-09-03T06:20:37.497Z,81.43
2022-09-03T06:23:04.644Z,81.57
2022-09-03T06:25:32.124Z,81.94
2022-09-03T06:27:59.294Z,81.99
2022-09-03T06:30:27.301Z,81.62
2022-09-03T06:32:54.403Z,81.24
2022-09-03T06:35:21.440Z,80.21
2022-09-03T06:37:48.944Z,79.82
2022-09-03T06:40:22.499Z,79.10
2022-09-03T06:43:03.380Z,79.05
2022-09-03T06:45:30.936Z,79.02
2022-09-03T06:47:58.095Z,78.46
2022-09-03T06:50:25.313Z,77.71
2022-09-03T06:52:55.049Z,76.88
2022-09-03T06:55:22.806Z,76.06
2022-09-03T06:57:52.894Z,76.22
2022-09-03T07:00:21.812Z,76.65
2022-09-03T07:02:48.894Z,75.99
2022-09-03T07:05:16.072Z,75.42
2022-09-03T07:07:44.603Z,75.43
2022-09-03T07:10:13.848Z,74.85
2022-09-03T07:12:41.025Z,74.44
2022-09-03T07:15:08.446Z,74.53
2022-09-03T07:17:35.539Z,74.79
2022-09-03T07:20:02.757Z,74.65
2022-09-03T07:22:31.347Z,74.16
2022-09-03T07:24:58.811Z,74.32
2022-09-03T07:27:26.496Z,74.68
2022-09-03T07:29:53.580Z,74.43
2022-09-03T07:32:20.710Z,74.33
2022-09-03T07:34:47.789Z,74.48
2022-09-03T07:37:15.810Z,74.92
2022-09-03T07:39:43.723Z,75.34
2022-09-03T07:42:11.075Z,73.90
2022-09-03T07:44:38.168Z,73.16
2022-09-03T07:47:06.417Z,73.26
2022-09-03T07:49:33.626Z,73.56
2022-09-03T07:52:03.028Z,73.48
2022-09-03T07:54:31.204Z,72.75
2022-09-03T07:56:58.783Z,72.45
2022-09-03T07:59:26.073Z,72.71
2022-09-03T08:01:53.140Z,72.56
2022-09-03T08:04:22.005Z,72.13
2022-09-03T08:06:49.664Z,71.84
2022-09-03T08:09:16.728Z,72.33
2022-09-03T08:11:43.937Z,71.80
2022-09-03T08:14:11.808Z,71.39
2022-09-03T08:16:41.792Z,71.00
2022-09-03T08:19:09.189Z,71.05
2022-09-03T08:21:36.550Z,70.12
2022-09-03T08:24:03.856Z,70.53
2022-09-03T08:26:32.304Z,70.11
2022-09-03T08:28:59.839Z,69.82
2022-09-03T08:31:28.272Z,69.33
2022-09-03T08:33:56.896Z,70.09
2022-09-03T08:36:25.425Z,69.64
2022-09-03T08:38:55.226Z,69.02
2022-09-03T08:41:34.099Z,70.19
2022-09-03T08:44:20.014Z,70.47
2022-09-03T08:46:47.047Z,70.98
2022-09-03T08:49:16.557Z,70.02
2022-09-03T08:51:45.052Z,69.51
2022-09-03T08:54:13.226Z,68.80
2022-09-03T08:56:42.671Z,67.58
2022-09-03T08:59:10.002Z,67.10
2022-09-03T09:01:37.256Z,66.70
2022-09-03T09:04:35.079Z,66.28
2022-09-03T09:07:13.293Z,65.77
2022-09-03T09:10:00.626Z,66.33
2022-09-03T09:12:47.106Z,65.96
2022-09-03T09:15:14.327Z,66.26
2022-09-03T09:17:41.367Z,64.87
2022-09-03T09:20:17.608Z,64.30
2022-09-03T09:22:47.142Z,63.58
2022-09-03T09:25:19.152Z,63.66
2022-09-03T09:27:51.738Z,62.99
2022-09-03T09:30:19.684Z,63.00
2022-09-03T09:32:47.493Z,63.01
2022-09-03T09:35:16.970Z,63.40
2022-09-03T09:37:58.373Z,63.41
2022-09-03T09:40:33.796Z,63.19
2022-09-03T09:43:04.768Z,61.82
2022-09-03T09:45:34.201Z,62.41
2022-09-03T09:48:02.508Z,62.49
2022-09-03T09:50:29.607Z,62.71
2022-09-03T09:53:00.522Z,62.94
2022-09-03T09:55:28.873Z,62.85
2022-09-03T09:58:05.211Z,62.98
2022-09-03T10:00:34.904Z,62.85
2022-09-03T10:03:02.165Z,62.21
2022-09-03T10:05:33.099Z,61.69
2022-09-03T10:08:01.965Z,61.84
2022-09-03T10:10:31.864Z,62.25
2022-09-03T10:13:02.932Z,62.84
2022-09-03T10:15:40.268Z,61.86
2022-09-03T10:18:28.915Z,62.30
2022-09-03T10:21:22.457Z,62.53
2022-09-03T10:24:08.254Z,62.04
2022-09-03T10:26:36.372Z,62.24
2022-09-03T10:29:05.729Z,62.08
2022-09-03T10:31:44.927Z,63.13
2022-09-03T10:34:34.168Z,62.95
2022-09-03T10:37:10.434Z,62.59
2022-09-03T10:39:43.203Z,63.39
2022-09-03T10:42:24.283Z,62.69
2022-09-03T10:45:20.590Z,62.28
2022-09-03T10:48:06.126Z,62.54
2022-09-03T10:50:51.201Z,62.67
2022-09-03T10:53:36.945Z,62.74
2022-09-03T10:56:22.448Z,62.98
2022-09-03T10:58:49.599Z,62.37
2022-09-03T11:01:22.560Z,62.66
2022-09-03T11:03:56.990Z,63.05
2022-09-03T11:06:26.404Z,61.85
2022-09-03T11:08:57.939Z,62.35
2022-09-03T11:11:32.871Z,62.96
2022-09-03T11:14:03.590Z,62.72
2022-09-03T11:16:36.184Z,63.08
2022-09-03T11:19:12.959Z,62.51
2022-09-03T11:21:41.974Z,63.11
2022-09-03T11:24:13.590Z,62.99
2022-09-03T11:26:45.955Z,62.26
2022-09-03T11:29:18.306Z,62.41
2022-09-03T11:31:58.882Z,62.59
2022-09-03T11:34:31.983Z,62.15
2022-09-03T11:37:06.543Z,62.19
2022-09-03T11:39:36.192Z,62.14
2022-09-03T11:42:07.718Z,62.77
2022-09-03T11:44:42.748Z,62.16
2022-09-03T11:47:23.352Z,62.43
2022-09-03T11:49:52.375Z,62.62
2022-09-03T11:52:29.578Z,62.48
2022-09-03T11:54:56.703Z,63.26
2022-09-03T11:57:27.430Z,63.06
2022-09-03T11:59:54.845Z,62.23
2022-09-03T12:02:23.093Z,62.41
2022-09-03T12:05:06.752Z,62.70
2022-09-03T12:07:43.255Z,62.69
2022-09-03T12:10:18.484Z,62.63
2022-09-03T12:12:48.879Z,62.32
2022-09-03T12:15:26.621Z,62.66
2022-09-03T12:18:17.531Z,62.38
2022-09-03T12:20:45.002Z,63.69
2022-09-03T12:23:15.033Z,63.05
2022-09-03T12:25:48.387Z,62.71
2022-09-03T12:28:19.426Z,62.41
2022-09-03T12:30:46.931Z,62.20
2022-09-03T12:33:17.634Z,63.60
2022-09-03T12:35:58.953Z,62.73
2022-09-03T12:38:27.765Z,62.56
2022-09-03T12:43:51.427Z,62.67
2022-09-03T12:46:21.012Z,62.62
2022-09-03T12:51:56.985Z,62.77
2022-09-03T12:54:27.063Z,63.09
2022-09-03T12:56:56.819Z,63.54
2022-09-03T12:59:25.711Z,63.58
2022-09-03T13:01:54.572Z,63.02
2022-09-03T13:04:26.760Z,63.62
2022-09-03T13:07:01.020Z,63.96
2022-09-03T13:09:29.978Z,63.94
2022-09-03T13:11:59.165Z,64.63
2022-09-03T13:14:26.868Z,64.61
2022-09-03T13:17:20.421Z,64.65
2022-09-03T13:19:53.430Z,64.75
2022-09-03T13:22:39.310Z,64.89
2022-09-03T13:25:15.320Z,64.89
2022-09-03T13:27:45.560Z,64.98
2022-09-03T13:30:14.311Z,64.83
2022-09-03T13:33:16.888Z,65.12
2022-09-03T13:35:54.895Z,65.38
2022-09-03T13:38:28.491Z,65.40
2022-09-03T13:40:59.687Z,65.83
2022-09-03T13:43:44.014Z,65.96
2022-09-03T13:46:16.918Z,65.79
2022-09-03T13:49:03.533Z,66.33
2022-09-03T13:51:49.818Z,66.61
2022-09-03T13:54:47.788Z,66.79
2022-09-03T13:57:22.894Z,67.19
2022-09-03T13:59:52.642Z,67.46
2022-09-03T14:02:28.942Z,67.72
2022-09-03T14:05:04.142Z,68.13
2022-09-03T14:07:35.319Z,68.63
2022-09-03T14:10:20.854Z,69.08
2022-09-03T14:12:55.656Z,68.96
2022-09-03T14:15:36.710Z,68.61
2022-09-03T14:18:12.875Z,69.27
2022-09-03T14:20:49.179Z,69.13
2022-09-03T14:23:31.437Z,69.30
2022-09-03T14:26:00.821Z,69.61
2022-09-03T14:28:34.608Z,69.55
2022-09-03T14:31:01.670Z,69.54
2022-09-03T14:33:47.590Z,70.07
2022-09-03T14:36:33.480Z,70.13
2022-09-03T14:39:06.806Z,70.11
2022-09-03T14:41:52.265Z,70.69
2022-09-03T14:44:28.711Z,71.04
2022-09-03T14:47:11.194Z,71.15
2022-09-03T14:49:41.423Z,71.38
2022-09-03T14:52:23.621Z,71.71
2022-09-03T14:55:10.140Z,71.95
2022-09-03T14:57:56.029Z,71.36
2022-09-03T15:00:33.307Z,71.64
2022-09-03T15:03:00.308Z,71.55
2022-09-03T15:05:36.796Z,72.09
2022-09-03T15:08:16.672Z,72.46
2022-09-03T15:10:55.894Z,72.20
2022-09-03T15:13:42.510Z,72.75
2022-09-03T15:16:09.610Z,73.03
2022-09-03T15:18:55.945Z,73.43
2022-09-03T15:21:31.785Z,73.61
2022-09-03T15:24:05.643Z,75.37
2022-09-03T15:26:52.202Z,74.63
2022-09-03T15:29:30.697Z,74.22
2022-09-03T15:31:57.945Z,74.95
2022-09-03T15:34:47.512Z,75.09
2022-09-03T15:37:19.739Z,75.11
2022-09-03T15:39:54.153Z,75.15
2022-09-03T15:42:27.395Z,74.59
2022-09-03T15:44:56.834Z,75.13
2022-09-03T15:47:52.056Z,74.92
2022-09-03T15:50:27.150Z,74.78
2022-09-03T15:53:13.656Z,74.80
2022-09-03T15:55:45.020Z,74.85
2022-09-03T15:58:23.791Z,74.41
2022-09-03T16:00:54.500Z,74.56
2022-09-03T16:03:31.736Z,75.09
2022-09-03T16:06:02.366Z,75.63
2022-09-03T16:08:41.721Z,75.20
2022-09-03T16:11:13.602Z,75.81
2022-09-03T16:13:46.265Z,75.99
2022-09-03T16:16:15.994Z,76.52
2022-09-03T16:18:49.875Z,76.52
2022-09-03T16:21:26.151Z,76.85
2022-09-03T16:24:02.564Z,76.80
2022-09-03T16:26:43.282Z,76.62
2022-09-03T16:29:15.285Z,76.66
2022-09-03T16:31:45.362Z,77.35
2022-09-03T16:34:18.722Z,76.92
2022-09-03T16:36:55.928Z,76.98
2022-09-03T16:39:32.049Z,77.47
2022-09-03T16:42:17.481Z,77.42
2022-09-03T16:44:51.184Z,77.10
2022-09-03T16:47:30.258Z,77.22
2022-09-03T16:49:57.286Z,76.95
2022-09-03T16:52:38.656Z,76.58
2022-09-03T16:55:19.467Z,76.38
2022-09-03T16:58:10.056Z,76.36
2022-09-03T17:00:49.180Z,76.27
2022-09-03T17:03:26.674Z,76.42
2022-09-03T17:06:15.671Z,76.88
2022-09-03T17:09:00.979Z,77.51
2022-09-03T17:11:31.188Z,77.88
2022-09-03T17:14:16.493Z,77.80
2022-09-03T17:16:44.350Z,78.36
2022-09-03T17:19:11.468Z,78.81
2022-09-03T17:21:46.803Z,78.90
2022-09-03T17:24:31.883Z,79.64
2022-09-03T17:27:04.261Z,80.17
2022-09-03T17:29:31.520Z,80.74
2022-09-03T17:32:04.581Z,80.64
2022-09-03T17:34:32.523Z,80.67
2022-09-03T17:37:07.155Z,80.44
2022-09-03T17:39:52.905Z,80.04
2022-09-03T17:42:33.526Z,79.83
2022-09-03T17:45:03.649Z,79.56
2022-09-03T17:47:30.798Z,79.75
2022-09-03T17:50:14.068Z,79.89
2022-09-03T17:52:54.056Z,80.44
2022-09-03T17:55:38.312Z,80.94
2022-09-03T17:58:11.242Z,80.94
2022-09-03T18:00:45.814Z,81.11
2022-09-03T18:03:23.433Z,81.14
2022-09-03T18:06:01.195Z,80.72
2022-09-03T18:08:42.321Z,81.28
2022-09-03T18:11:09.473Z,81.87
2022-09-03T18:13:39.594Z,81.80
2022-09-03T18:16:09.696Z,81.93
2022-09-03T18:18:42.831Z,82.02
2022-09-03T18:21:32.114Z,82.51
2022-09-03T18:24:39.560Z,83.08
2022-09-03T18:27:34.806Z,83.48
2022-09-03T18:30:24.724Z,83.37
2022-09-03T18:33:10.523Z,83.09
2022-09-03T18:35:56.349Z,83.20
2022-09-03T18:38:46.411Z,83.78
2022-09-03T18:41:43.833Z,83.52
2022-09-03T18:44:48.558Z,83.91
2022-09-03T18:48:04.653Z,83.93
2022-09-03T18:51:17.499Z,84.19
2022-09-03T18:54:09.465Z,84.57
2022-09-03T18:57:11.194Z,84.90
2022-09-03T18:59:59.990Z,84.80
2022-09-03T19:03:15.820Z,84.72
2022-09-03T19:06:34.789Z,85.29
2022-09-03T19:09:39.320Z,85.60
2022-09-03T19:12:41.005Z,86.07
2022-09-03T19:15:26.644Z,86.68
2022-09-03T19:18:27.802Z,86.37
2022-09-03T19:21:25.784Z,86.26
2022-09-03T19:24:14.551Z,86.07
2022-09-03T19:27:50.089Z,85.67
2022-09-03T19:30:28.186Z,85.74
2022-09-03T19:33:18.311Z,85.62
2022-09-03T19:36:22.099Z,85.40
2022-09-03T19:39:21.056Z,85.54
2022-09-03T19:42:11.673Z,85.76
2022-09-03T19:45:06.449Z,85.56
2022-09-03T19:48:03.369Z,85.56
2022-09-03T19:50:53.656Z,85.96
2022-09-03T19:53:40.317Z,85.97
2022-09-03T19:56:29.555Z,85.92
2022-09-03T19:59:19.383Z,85.92
2022-09-03T20:02:05.981Z,85.96
2022-09-03T20:04:53.906Z,86.35
2022-09-03T20:07:39.759Z,86.56
2022-09-03T20:10:25.438Z,86.57
2022-09-03T20:13:05.301Z,86.88
2022-09-03T20:15:39.938Z,86.61
2022-09-03T20:18:10.379Z,86.93
2022-09-03T20:20:46.720Z,87.35
2022-09-03T20:23:22.826Z,87.46
2022-09-03T20:25:49.876Z,87.63
2022-09-03T20:28:25.904Z,87.52
2022-09-03T20:30:58.959Z,87.51
2022-09-03T20:33:34.423Z,87.77
2022-09-03T20:36:09.669Z,88.63
2022-09-03T20:38:46.948Z,89.35
2022-09-03T20:41:26.014Z,89.97
2022-09-03T20:44:04.339Z,89.61
2022-09-03T20:46:31.427Z,89.42
2022-09-03T20:49:30.792Z,89.63
2022-09-03T20:52:05.407Z,89.90
2022-09-03T20:54:37.028Z,89.87
2022-09-03T20:57:27.320Z,89.71
2022-09-03T21:00:18.348Z,89.84
2022-09-03T21:03:04.257Z,90.12
2022-09-03T21:05:48.610Z,90.15
2022-09-03T21:08:22.197Z,91.11
2022-09-03T21:11:07.869Z,90.87
2022-09-03T21:13:50.094Z,91.06
2022-09-03T21:16:20.336Z,90.79
2022-09-03T21:18:52.243Z,90.72
2022-09-03T21:21:26.125Z,90.80
2022-09-03T21:23:59.754Z,91.00
2022-09-03T21:26:29.232Z,91.04
2022-09-03T21:29:18.449Z,91.03
2022-09-03T21:31:54.285Z,91.42
2022-09-03T21:34:29.139Z,92.54
2022-09-03T21:36:56.853Z,93.26
2022-09-03T21:39:27.336Z,92.81
2022-09-03T21:42:05.248Z,93.53
2022-09-03T21:44:50.507Z,94.47
2022-09-03T21:47:18.801Z,95.08
2022-09-03T21:50:04.621Z,95.95
2022-09-03T21:52:37.589Z,97.13
2022-09-03T21:55:20.013Z,96.98
2022-09-03T21:57:59.289Z,96.91
2022-09-03T22:00:32.454Z,95.98
2022-09-03T22:03:00.333Z,95.56
2022-09-03T22:05:35.272Z,95.76
2022-09-03T22:08:02.393Z,96.07
2022-09-03T22:10:39.115Z,96.71
2022-09-03T22:13:14.773Z,96.66
2022-09-03T22:15:50.949Z,96.75
2022-09-03T22:18:29.672Z,97.23
2022-09-03T22:21:12.619Z,97.73
2022-09-03T22:23:45.762Z,97.87
2022-09-03T22:26:28.164Z,97.02
2022-09-03T22:29:02.267Z,96.78
2022-09-03T22:31:37.423Z,97.12
2022-09-03T22:34:07.543Z,97.90
2022-09-03T22:36:40.375Z,98.33
2022-09-03T22:39:07.361Z,98.34
2022-09-03T22:41:34.775Z,98.04
2022-09-03T22:44:26.886Z,98.03
2022-09-03T22:46:54.435Z,98.08
2022-09-03T22:49:31.694Z,98.28
2022-09-03T22:52:15.042Z,98.28
2022-09-03T22:54:46.339Z,98.36
2022-09-03T22:57:14.720Z,98.46
2022-09-03T22:59:48.720Z,99.08
2022-09-03T23:02:21.449Z,99.19
2022-09-03T23:04:55.767Z,99.91
2022-09-03T23:07:34.937Z,99.45
2022-09-03T23:10:04.592Z,99.43
2022-09-03T23:12:41.364Z,98.97
2022-09-03T23:15:11.481Z,99.16
2022-09-03T23:17:40.561Z,98.53
2022-09-03T23:23:03.488Z,98.68
2022-09-03T23:25:36.132Z,98.70
2022-09-03T23:28:15.663Z,99.10
2022-09-03T23:30:42.946Z,98.97
2022-09-03T23:33:10.131Z,98.92
2022-09-03T23:35:59.996Z,98.99
2022-09-03T23:38:50.165Z,99.16
2022-09-03T23:41:25.721Z,99.61
2022-09-03T23:43:56.014Z,100.00
2022-09-03T23:46:26.011Z,100.00
2022-09-03T23:49:05.106Z,100.00
2022-09-03T23:51:44.901Z,100.00
2022-09-03T23:54:24.260Z,99.96
2022-09-03T23:57:16.555Z,99.86
